Aérodrome :
LOGIN :

S'inscrire | Disclaimer

   EN    FR    IT 

 










Légende :    VFR   VFR Marginal   IFR   IFR Intensif   IFR Très Intensif
Visi : 
Plafond : 
>= 8 km
>= 3000ft
5 à 8 km
1000 à 3000 ft
1500m à 5 km
500 à 1000 ft
800 à 1500m
200 à 500 ft
< 800m
< 200 ft
Symboles :   Orages  Brouillard  Fortes neiges  Fortes précipitations  Vent > 20 kt
SIGMETs :   Divers  Orages  Givrage  Turbulence  Onde Orograph.  Cendres Volcan.







- Altitude de l'aérodrome : 195 ft
- Voir les cartes d'approche


LFMY - Salon de Provence

DERNIER METAR :
  • 172200Z AUTO 19002KT 9000 NSC 18/17 Q1015

METARs EXPIRÉS :
  • 172130Z AUTO VRB02KT 9999 ///TCU 18/16 Q1015
  • 172100Z AUTO 36002KT CAVOK 18/16 Q1015
  • 172030Z AUTO 02002KT 9000 -RA NSC 18/16 Q1015
  • 172000Z AUTO 00000KT 6000 NSC 18/17 Q1015
  • 171930Z AUTO 00000KT CAVOK 18/16 Q1015

TAF TAF LFMY
Valide du 17 à 15h jusqu'au 18 à 15h UTC


171400Z 1715/1815 31005KT 9999 SCT045
FM172000 VRB02KT 8000 BKN030
TEMPO 1720/1805 4000 SHRA SCT012 SCT025TCU BKN030
TEMPO 1805/1808 4000 BR
PROB30
TEMPO 1812/1815 VRB15KT SHRA SCT030TCU
Pas de NOTAMs connus pour ce terrain.



MET'MAP, la Météo Aéronautique d'un coup d'oeil ! - Copyright ORBIFLY Décembre 2007 - Disclaimer

ORBIFLY MET'MAP TEAM :

Programmation & Développement : Alexandra Zaïnal
Conception & Développement : Baudouin d'Aumeries
Co-Programmation & Développement : Marc-Olivier Méhu
Soutien technique & logistique : Manuel Goepfert

Contact : metmap@orbifly.com




SOURCES & CREDITS :

   NOAA